createdAt,value
2023-05-07T00:03:04.208Z,6.00
2023-05-07T00:07:06.705Z,6.07
2023-05-07T00:11:08.752Z,6.06
2023-05-07T00:15:11.436Z,6.08
2023-05-07T00:19:13.693Z,5.87
2023-05-07T00:23:15.618Z,5.98
2023-05-07T00:27:17.569Z,6.02
2023-05-07T00:31:19.681Z,5.90
2023-05-07T00:35:21.883Z,5.91
2023-05-07T00:39:23.957Z,5.81
2023-05-07T00:43:26.016Z,5.87
2023-05-07T00:47:28.071Z,5.97
2023-05-07T00:51:30.694Z,5.89
2023-05-07T00:55:33.940Z,5.85
2023-05-07T00:59:36.597Z,5.79
2023-05-07T01:03:38.740Z,5.80
2023-05-07T01:07:43.236Z,5.77
2023-05-07T01:11:45.446Z,5.82
2023-05-07T01:15:47.577Z,5.83
2023-05-07T01:19:50.081Z,5.89
2023-05-07T01:23:55.796Z,5.86
2023-05-07T01:28:00.384Z,5.69
2023-05-07T01:32:06.754Z,5.84
2023-05-07T01:36:09.827Z,5.80
2023-05-07T01:40:12.557Z,5.73
2023-05-07T01:44:16.396Z,5.71
2023-05-07T01:48:19.410Z,5.76
2023-05-07T01:52:21.409Z,5.72
2023-05-07T01:56:23.644Z,5.71
2023-05-07T02:00:25.740Z,5.75
2023-05-07T02:04:27.881Z,5.74
2023-05-07T02:08:30.993Z,5.58
2023-05-07T02:12:33.824Z,5.68
2023-05-07T02:16:37.114Z,5.67
2023-05-07T02:20:39.332Z,5.71
2023-05-07T02:24:41.596Z,5.75
2023-05-07T02:28:43.632Z,5.72
2023-05-07T02:32:46.281Z,5.80
2023-05-07T02:36:48.539Z,5.69
2023-05-07T02:40:54.777Z,5.75
2023-05-07T02:44:56.791Z,5.64
2023-05-07T02:48:58.907Z,5.53
2023-05-07T02:53:01.162Z,5.56
2023-05-07T02:57:04.191Z,5.70
2023-05-07T03:01:07.078Z,5.74
2023-05-07T03:05:25.390Z,5.63
2023-05-07T03:09:27.640Z,5.72
2023-05-07T03:13:29.634Z,5.62
2023-05-07T03:17:32.043Z,5.69
2023-05-07T03:21:35.279Z,5.72
2023-05-07T03:25:36.876Z,5.67
2023-05-07T03:29:38.935Z,5.76
2023-05-07T03:33:52.361Z,5.78
2023-05-07T03:37:54.436Z,5.77
2023-05-07T03:41:58.145Z,5.84
2023-05-07T03:46:00.327Z,5.83
2023-05-07T03:50:04.470Z,5.82
2023-05-07T03:54:06.599Z,5.68
2023-05-07T03:58:09.713Z,5.65
2023-05-07T04:02:12.696Z,5.73
2023-05-07T04:06:17.662Z,5.89
2023-05-07T04:10:22.030Z,5.75
2023-05-07T04:14:27.277Z,5.81
2023-05-07T04:18:29.803Z,5.78
2023-05-07T04:22:31.893Z,5.86
2023-05-07T04:26:34.902Z,5.84
2023-05-07T04:30:37.094Z,5.81
2023-05-07T04:34:41.446Z,5.80
2023-05-07T04:38:44.090Z,5.86
2023-05-07T04:42:46.372Z,5.92
2023-05-07T04:46:49.498Z,5.93
2023-05-07T04:50:51.987Z,6.02
2023-05-07T04:54:54.946Z,6.01
2023-05-07T04:58:57.265Z,5.92
2023-05-07T05:03:00.249Z,6.09
2023-05-07T05:07:04.544Z,5.94
2023-05-07T05:11:07.154Z,6.25
2023-05-07T05:15:13.536Z,6.23
2023-05-07T05:19:16.034Z,6.20
2023-05-07T05:23:20.834Z,6.29
2023-05-07T05:27:23.538Z,6.44
2023-05-07T05:31:26.562Z,6.57
2023-05-07T05:35:28.699Z,6.58
2023-05-07T05:39:31.795Z,6.75
2023-05-07T05:43:34.661Z,6.86
2023-05-07T05:47:36.796Z,6.98
2023-05-07T05:51:38.948Z,6.89
2023-05-07T05:55:42.242Z,6.98
2023-05-07T05:59:44.931Z,7.33
2023-05-07T06:03:47.003Z,7.58
2023-05-07T06:07:50.880Z,7.39
2023-05-07T06:11:53.438Z,7.37
2023-05-07T06:15:55.780Z,7.55
2023-05-07T06:19:57.860Z,7.63
2023-05-07T06:24:00.077Z,7.55
2023-05-07T06:28:02.252Z,7.80
2023-05-07T06:32:13.290Z,7.66
2023-05-07T06:36:17.464Z,7.75
2023-05-07T06:40:20.816Z,7.78
2023-05-07T06:44:24.959Z,7.73
2023-05-07T06:48:35.886Z,7.90
2023-05-07T06:52:40.940Z,7.84
2023-05-07T06:56:43.149Z,7.86
2023-05-07T07:00:45.643Z,7.87
2023-05-07T07:04:48.446Z,7.89
2023-05-07T07:08:51.079Z,7.75
2023-05-07T07:12:54.027Z,7.91
2023-05-07T07:16:57.163Z,7.84
2023-05-07T07:21:00.345Z,7.81
2023-05-07T07:25:02.764Z,8.00
2023-05-07T07:29:05.567Z,8.00
2023-05-07T07:33:07.740Z,8.31
2023-05-07T07:37:12.436Z,8.43
2023-05-07T07:41:14.509Z,8.69
2023-05-07T07:45:16.648Z,8.82
2023-05-07T07:49:22.300Z,8.32
2023-05-07T07:53:24.495Z,8.09
2023-05-07T07:57:26.863Z,8.44
2023-05-07T08:01:31.636Z,8.63
2023-05-07T08:05:34.489Z,8.46
2023-05-07T08:09:36.775Z,8.79
2023-05-07T08:13:40.054Z,8.73
2023-05-07T08:17:42.453Z,8.78
2023-05-07T08:21:45.401Z,9.06
2023-05-07T08:25:47.711Z,9.03
2023-05-07T08:29:50.890Z,9.22
2023-05-07T08:33:54.508Z,9.36
2023-05-07T08:37:56.855Z,9.60
2023-05-07T08:42:01.969Z,9.84
2023-05-07T08:46:07.492Z,9.46
2023-05-07T08:50:14.600Z,9.75
2023-05-07T08:54:18.810Z,9.82
2023-05-07T08:58:21.418Z,9.23
2023-05-07T09:02:23.851Z,9.63
2023-05-07T09:06:27.632Z,9.70
2023-05-07T09:10:32.534Z,9.59
2023-05-07T09:14:34.756Z,9.79
2023-05-07T09:18:42.504Z,9.95
2023-05-07T09:22:46.393Z,9.85
2023-05-07T09:26:51.413Z,10.07
2023-05-07T09:30:53.876Z,9.91
2023-05-07T09:34:56.540Z,10.37
2023-05-07T09:39:01.376Z,10.24
2023-05-07T09:43:15.118Z,9.93
2023-05-07T09:47:25.594Z,9.86
2023-05-07T09:51:32.233Z,9.82
2023-05-07T09:55:36.223Z,10.00
2023-05-07T09:59:39.754Z,9.81
2023-05-07T10:03:47.024Z,9.86
2023-05-07T10:07:51.337Z,9.62
2023-05-07T10:11:55.351Z,9.46
2023-05-07T10:15:58.209Z,9.58
2023-05-07T10:20:05.051Z,10.01
2023-05-07T10:24:15.640Z,9.87
2023-05-07T10:28:20.825Z,9.80
2023-05-07T10:32:43.547Z,9.73
2023-05-07T10:36:52.830Z,9.77
2023-05-07T10:40:55.806Z,10.03
2023-05-07T10:44:58.271Z,9.91
2023-05-07T10:49:07.033Z,9.84
2023-05-07T10:53:27.672Z,9.77
2023-05-07T10:57:38.777Z,9.50
2023-05-07T11:01:52.772Z,9.76
2023-05-07T11:06:16.944Z,9.96
2023-05-07T11:10:59.447Z,10.03
2023-05-07T11:15:16.624Z,9.83
2023-05-07T11:19:38.918Z,10.13
2023-05-07T11:23:41.584Z,10.59
2023-05-07T11:28:06.318Z,11.30
2023-05-07T11:32:09.492Z,11.22
2023-05-07T11:36:21.839Z,11.04
2023-05-07T11:40:26.388Z,11.35
2023-05-07T11:44:43.257Z,11.22
2023-05-07T11:48:45.320Z,11.32
2023-05-07T11:52:53.811Z,10.99
2023-05-07T11:56:57.099Z,11.05
2023-05-07T12:00:59.242Z,10.57
2023-05-07T12:05:01.610Z,10.60
2023-05-07T12:09:03.832Z,10.75
2023-05-07T12:13:25.105Z,10.96
2023-05-07T12:17:27.370Z,11.18
2023-05-07T12:21:30.540Z,11.23
2023-05-07T12:25:35.592Z,11.27
2023-05-07T12:29:40.083Z,11.50
2023-05-07T12:33:42.275Z,11.10
2023-05-07T12:37:44.544Z,11.32
2023-05-07T12:41:59.442Z,11.92
2023-05-07T12:46:05.160Z,12.31
2023-05-07T12:50:08.081Z,12.82
2023-05-07T12:54:10.204Z,12.03
2023-05-07T12:58:20.393Z,11.77
2023-05-07T13:02:33.868Z,11.72
2023-05-07T13:06:36.096Z,12.09
2023-05-07T13:10:38.010Z,11.84
2023-05-07T13:14:40.352Z,12.07
2023-05-07T13:18:44.720Z,12.47
2023-05-07T13:22:47.100Z,11.76
2023-05-07T13:26:49.242Z,11.22
2023-05-07T13:30:55.823Z,11.79
2023-05-07T13:34:58.257Z,12.45
2023-05-07T13:39:01.525Z,11.94
2023-05-07T13:43:03.520Z,11.72
2023-05-07T13:47:05.652Z,11.76
2023-05-07T13:51:07.666Z,11.80
2023-05-07T13:55:13.945Z,12.12
2023-05-07T13:59:16.292Z,12.94
2023-05-07T14:03:20.708Z,12.81
2023-05-07T14:07:22.981Z,13.05
2023-05-07T14:11:25.042Z,13.32
2023-05-07T14:15:27.106Z,13.64
2023-05-07T14:19:29.158Z,13.53
2023-05-07T14:23:31.247Z,13.79
2023-05-07T14:27:33.685Z,13.65
2023-05-07T14:31:35.813Z,13.40
2023-05-07T14:35:37.974Z,13.33
2023-05-07T14:39:40.892Z,12.97
2023-05-07T14:43:42.973Z,12.98
2023-05-07T14:47:45.054Z,13.52
2023-05-07T14:51:48.081Z,13.49
2023-05-07T14:55:50.342Z,12.90
2023-05-07T14:59:52.607Z,12.34
2023-05-07T15:03:55.615Z,12.61
2023-05-07T15:07:57.868Z,12.85
2023-05-07T15:11:59.851Z,13.08
2023-05-07T15:16:01.995Z,12.86
2023-05-07T15:20:05.792Z,12.95
2023-05-07T15:24:10.393Z,12.93
2023-05-07T15:28:12.666Z,12.46
2023-05-07T15:32:14.869Z,12.74
2023-05-07T15:36:16.980Z,12.52
2023-05-07T15:40:19.146Z,12.50
2023-05-07T15:44:21.231Z,12.62
2023-05-07T15:48:23.297Z,12.90
2023-05-07T15:52:25.491Z,12.91
2023-05-07T15:56:27.635Z,12.67
2023-05-07T16:00:29.604Z,12.35
2023-05-07T16:04:32.175Z,12.08
2023-05-07T16:08:34.351Z,12.32
2023-05-07T16:12:36.794Z,12.77
2023-05-07T16:16:41.092Z,12.68
2023-05-07T16:20:43.870Z,12.43
2023-05-07T16:24:46.222Z,12.02
2023-05-07T16:28:48.555Z,11.78
2023-05-07T16:32:50.745Z,11.60
2023-05-07T16:36:52.948Z,11.49
2023-05-07T16:40:55.254Z,11.29
2023-05-07T16:44:57.335Z,11.30
2023-05-07T16:48:59.413Z,11.12
2023-05-07T16:53:01.511Z,10.96
2023-05-07T16:57:03.769Z,11.03
2023-05-07T17:01:05.952Z,10.79
2023-05-07T17:05:08.518Z,10.77
2023-05-07T17:09:10.736Z,10.60
2023-05-07T17:13:13.270Z,10.46
2023-05-07T17:17:15.676Z,10.39
2023-05-07T17:21:17.790Z,10.43
2023-05-07T17:25:20.224Z,10.26
2023-05-07T17:29:22.292Z,10.22
2023-05-07T17:33:24.433Z,10.08
2023-05-07T17:37:27.188Z,10.03
2023-05-07T17:41:29.223Z,9.93
2023-05-07T17:45:32.541Z,9.84
2023-05-07T17:49:35.705Z,9.63
2023-05-07T17:53:37.845Z,9.45
2023-05-07T17:57:39.804Z,9.26
2023-05-07T18:01:42.180Z,9.05
2023-05-07T18:05:44.632Z,8.99
2023-05-07T18:09:46.725Z,8.74
2023-05-07T18:13:48.747Z,8.70
2023-05-07T18:17:50.772Z,8.52
2023-05-07T18:21:55.213Z,8.67
2023-05-07T18:25:57.189Z,8.49
2023-05-07T18:29:59.254Z,8.29
2023-05-07T18:34:01.292Z,8.14
2023-05-07T18:38:03.453Z,7.93
2023-05-07T18:42:05.527Z,7.72
2023-05-07T18:46:07.882Z,7.54
2023-05-07T18:50:10.527Z,7.32
2023-05-07T18:54:12.765Z,7.22
2023-05-07T18:58:16.542Z,6.96
2023-05-07T19:02:19.230Z,6.61
2023-05-07T19:06:22.158Z,6.20
2023-05-07T19:10:24.435Z,6.04
2023-05-07T19:14:26.969Z,5.86
2023-05-07T19:18:30.537Z,5.77
2023-05-07T19:22:32.704Z,5.76
2023-05-07T19:26:34.800Z,5.81
2023-05-07T19:30:40.807Z,5.63
2023-05-07T19:34:42.940Z,5.59
2023-05-07T19:38:45.825Z,5.50
2023-05-07T19:42:47.932Z,5.45
2023-05-07T19:46:50.144Z,5.30
2023-05-07T19:50:52.211Z,5.30
2023-05-07T19:54:56.231Z,5.21
2023-05-07T19:58:58.355Z,5.08
2023-05-07T20:03:00.501Z,4.99
2023-05-07T20:07:02.685Z,4.92
2023-05-07T20:11:05.200Z,4.81
2023-05-07T20:15:07.830Z,4.77
2023-05-07T20:19:09.850Z,4.70
2023-05-07T20:23:12.095Z,4.63
2023-05-07T20:27:14.074Z,4.54
2023-05-07T20:31:16.689Z,4.43
2023-05-07T20:35:18.897Z,4.39
2023-05-07T20:39:20.948Z,4.31
2023-05-07T20:43:22.961Z,4.34
2023-05-07T20:47:25.112Z,4.20
2023-05-07T20:51:27.293Z,4.09
2023-05-07T20:55:29.452Z,4.01
2023-05-07T20:59:34.772Z,4.02
2023-05-07T21:03:36.862Z,3.94
2023-05-07T21:07:38.857Z,3.89
2023-05-07T21:11:40.970Z,3.86
2023-05-07T21:15:43.050Z,3.64
2023-05-07T21:19:45.160Z,3.67
2023-05-07T21:23:47.239Z,3.64
2023-05-07T21:27:49.211Z,3.51
2023-05-07T21:31:51.233Z,3.61
2023-05-07T21:35:54.140Z,3.53
2023-05-07T21:39:56.285Z,3.46
2023-05-07T21:43:58.268Z,3.36
2023-05-07T21:48:00.409Z,3.37
2023-05-07T21:52:03.036Z,3.31
2023-05-07T21:56:05.678Z,3.29
2023-05-07T22:00:08.435Z,3.22
2023-05-07T22:04:11.144Z,3.20
2023-05-07T22:08:13.198Z,3.03
2023-05-07T22:12:15.252Z,3.00
2023-05-07T22:16:17.228Z,2.96
2023-05-07T22:20:19.225Z,2.93
2023-05-07T22:24:21.428Z,2.87
2023-05-07T22:28:23.477Z,2.84
2023-05-07T22:32:25.671Z,2.76
2023-05-07T22:36:27.828Z,2.74
2023-05-07T22:40:29.913Z,2.67
2023-05-07T22:44:31.938Z,2.56
2023-05-07T22:48:34.043Z,2.61
2023-05-07T22:52:36.038Z,2.50
2023-05-07T22:56:38.094Z,2.43
2023-05-07T23:00:40.220Z,2.39
2023-05-07T23:04:42.201Z,2.38
2023-05-07T23:08:44.384Z,2.33
2023-05-07T23:12:49.360Z,2.30
2023-05-07T23:16:51.454Z,2.26
2023-05-07T23:20:53.580Z,2.11
2023-05-07T23:24:55.672Z,2.09
2023-05-07T23:28:57.748Z,2.11
2023-05-07T23:32:59.810Z,2.01
2023-05-07T23:37:01.843Z,2.00
2023-05-07T23:41:03.865Z,1.88
2023-05-07T23:45:06.302Z,1.84
2023-05-07T23:49:08.264Z,1.85
2023-05-07T23:53:10.410Z,1.76
2023-05-07T23:57:12.452Z,1.76
